Time;durP1;ratioP1;P1;durP2;ratioP2;P2;SDS_P1;SDS_P2;PMS_P1;PMS_P2;Temp;Humidity;BMP_temperature;BMP_pressure;BME280_temperature;BME280_humidity;BME280_pressure;Samples;Min_cycle;Max_cycle;Signal;HPM_P1;HPM_P2
2022/10/12 00:01:06;;;;;;;4.47;2.15;;;7.70;81.00;;;;;;5113664;27;20052;-66
2022/10/12 00:03:33;;;;;;;4.53;1.88;;;7.60;81.20;;;;;;5114845;27;20043;-66
2022/10/12 00:06:02;;;;;;;6.97;2.13;;;7.60;81.50;;;;;;5107934;27;20404;-65
2022/10/12 00:08:32;;;;;;;7.95;2.38;;;7.50;81.60;;;;;;5114364;27;20047;-66
2022/10/12 00:11:00;;;;;;;5.87;2.00;;;7.60;81.60;;;;;;5113885;27;20055;-67
2022/10/12 00:13:27;;;;;;;7.93;2.10;;;7.60;81.50;;;;;;5114287;27;20458;-64
2022/10/12 00:15:56;;;;;;;8.82;2.20;;;7.60;81.40;;;;;;5113798;27;20047;-65
2022/10/12 00:18:23;;;;;;;7.72;2.22;;;7.60;81.40;;;;;;5108547;27;20418;-64
2022/10/12 00:20:59;;;;;;;6.72;2.15;;;7.50;81.50;;;;;;5120992;27;20153;-65
2022/10/12 00:23:26;;;;;;;3.33;1.98;;;7.50;81.50;;;;;;5124311;27;20044;-65
2022/10/12 00:25:54;;;;;;;4.35;1.75;;;7.50;81.60;;;;;;5120365;27;20409;-65
2022/10/12 00:28:21;;;;;;;8.05;2.05;;;7.50;81.50;;;;;;5118339;27;20055;-64
2022/10/12 00:30:48;;;;;;;5.38;1.70;;;7.40;81.50;;;;;;5111905;27;20066;-65
2022/10/12 00:33:15;;;;;;;6.80;1.95;;;7.50;81.40;;;;;;5115973;27;20520;-64
2022/10/12 00:35:42;;;;;;;4.05;1.80;;;7.40;81.30;;;;;;5116743;27;20056;-65
2022/10/12 00:38:09;;;;;;;4.07;2.03;;;7.40;81.40;;;;;;5109097;27;20042;-64
2022/10/12 00:40:36;;;;;;;3.88;2.05;;;7.40;81.40;;;;;;5115668;27;20047;-65
2022/10/12 00:43:30;;;;;;;5.78;1.90;;;7.40;81.30;;;;;;5119142;27;20134;-65
2022/10/12 00:46:01;;;;;;;4.50;1.73;;;7.30;81.30;;;;;;5115158;27;20458;-66
2022/10/12 00:48:28;;;;;;;4.65;1.70;;;7.30;81.10;;;;;;5119002;27;20093;-64
2022/10/12 00:50:57;;;;;;;4.78;1.98;;;7.30;81.10;;;;;;5113871;27;20043;-66
2022/10/12 00:53:27;;;;;;;5.15;1.60;;;7.20;81.20;;;;;;5116197;27;20055;-64
2022/10/12 00:55:59;;;;;;;4.78;1.73;;;7.20;81.10;;;;;;5113396;27;20056;-64
2022/10/12 00:58:30;;;;;;;6.32;2.10;;;7.20;81.30;;;;;;5115086;27;20067;-64
2022/10/12 01:00:57;;;;;;;5.32;2.15;;;7.10;81.30;;;;;;5115065;27;20043;-64
2022/10/12 01:03:24;;;;;;;7.10;2.10;;;7.10;81.30;;;;;;5104799;27;20051;-65
2022/10/12 01:05:51;;;;;;;8.52;2.20;;;7.10;81.20;;;;;;5118542;27;20104;-64
2022/10/12 01:08:18;;;;;;;5.25;2.15;;;7.10;81.30;;;;;;5116996;27;20043;-64
2022/10/12 01:10:45;;;;;;;4.45;2.22;;;7.00;81.30;;;;;;5118586;27;20043;-65
2022/10/12 01:13:12;;;;;;;4.50;1.95;;;7.10;81.40;;;;;;5111699;27;20604;-65
2022/10/12 01:15:46;;;;;;;5.05;2.00;;;7.00;81.40;;;;;;5112743;27;20047;-65
2022/10/12 01:18:19;;;;;;;4.47;1.80;;;7.00;81.40;;;;;;5117997;27;20047;-65
2022/10/12 01:21:00;;;;;;;5.93;1.48;;;7.00;81.40;;;;;;5118937;27;20047;-67
2022/10/12 01:24:16;;;;;;;4.22;1.65;;;7.00;81.40;;;;;;5112783;27;20511;-65
2022/10/12 01:27:03;;;;;;;5.85;1.60;;;7.00;81.40;;;;;;5108120;27;20051;-66
2022/10/12 01:29:57;;;;;;;5.28;1.50;;;7.00;81.30;;;;;;5105969;27;20612;-66
2022/10/12 01:32:30;;;;;;;5.80;1.73;;;7.00;81.30;;;;;;5110473;27;20051;-64
2022/10/12 01:35:02;;;;;;;4.03;1.80;;;6.90;81.40;;;;;;5111119;27;20039;-65
2022/10/12 01:37:40;;;;;;;4.85;1.52;;;6.90;81.60;;;;;;5116170;27;20092;-65
2022/10/12 01:40:12;;;;;;;7.55;1.55;;;7.00;81.50;;;;;;5113950;27;20055;-64
2022/10/12 01:42:41;;;;;;;4.85;1.63;;;7.00;81.50;;;;;;5113364;27;20054;-65
2022/10/12 01:45:10;;;;;;;3.40;1.30;;;6.90;81.50;;;;;;5112385;27;22337;-64
2022/10/12 01:47:41;;;;;;;4.88;1.75;;;6.90;81.60;;;;;;5116579;27;20039;-64
2022/10/12 01:50:12;;;;;;;5.97;1.88;;;6.90;81.50;;;;;;5115823;27;20051;-65
2022/10/12 01:52:45;;;;;;;4.35;1.40;;;6.90;81.50;;;;;;5110356;27;20420;-64
2022/10/12 01:55:26;;;;;;;5.35;1.45;;;6.80;81.60;;;;;;5116825;27;20047;-66
2022/10/12 01:58:08;;;;;;;6.28;1.60;;;6.80;81.60;;;;;;5115811;27;20053;-65
2022/10/12 02:00:43;;;;;;;4.10;1.13;;;6.80;81.70;;;;;;5115034;27;20044;-64
2022/10/12 02:03:19;;;;;;;6.00;1.50;;;6.80;81.70;;;;;;5116134;27;20523;-62
2022/10/12 02:05:51;;;;;;;4.93;1.60;;;6.80;81.60;;;;;;5115832;27;20043;-65
2022/10/12 02:08:23;;;;;;;4.05;1.35;;;6.80;81.70;;;;;;5113446;27;20401;-65
2022/10/12 02:10:55;;;;;;;6.00;1.40;;;6.70;81.80;;;;;;5117917;27;20435;-64
2022/10/12 02:13:26;;;;;;;4.07;1.23;;;6.70;81.90;;;;;;5117887;27;20055;-64
2022/10/12 02:15:54;;;;;;;8.05;1.48;;;6.70;81.90;;;;;;5116097;27;20067;-64
2022/10/12 02:18:25;;;;;;;7.90;2.10;;;6.70;81.80;;;;;;5115239;27;20487;-63
2022/10/12 02:20:54;;;;;;;3.00;1.33;;;6.70;81.80;;;;;;5116305;27;20815;-65
2022/10/12 02:23:26;;;;;;;5.85;1.80;;;6.70;81.70;;;;;;5118961;27;20031;-65
2022/10/12 02:25:55;;;;;;;6.05;1.50;;;6.70;81.80;;;;;;5118860;27;20065;-65
2022/10/12 02:28:26;;;;;;;3.85;1.42;;;6.70;81.80;;;;;;5113159;27;20040;-66
2022/10/12 02:30:59;;;;;;;4.57;1.63;;;6.70;81.80;;;;;;5116828;27;20158;-64
2022/10/12 02:33:32;;;;;;;4.03;1.35;;;6.70;81.70;;;;;;5116364;27;20048;-65
2022/10/12 02:36:02;;;;;;;5.60;1.60;;;6.70;81.50;;;;;;5106862;27;20055;-64
2022/10/12 02:38:33;;;;;;;7.07;2.15;;;6.70;81.60;;;;;;5118711;27;20046;-65
2022/10/12 02:41:05;;;;;;;3.50;1.40;;;6.60;81.80;;;;;;5116543;27;20500;-64
2022/10/12 02:43:37;;;;;;;4.45;1.55;;;6.50;81.90;;;;;;5116873;27;20453;-66
2022/10/12 02:46:07;;;;;;;5.85;1.60;;;6.50;82.00;;;;;;5118633;27;20043;-65
2022/10/12 02:48:37;;;;;;;3.55;1.40;;;6.50;82.00;;;;;;5112484;27;20043;-65
2022/10/12 02:51:07;;;;;;;7.10;1.60;;;6.50;81.80;;;;;;5109214;27;20047;-64
2022/10/12 02:53:34;;;;;;;3.97;1.40;;;6.40;81.80;;;;;;5107283;27;20093;-65
2022/10/12 02:56:04;;;;;;;7.22;1.55;;;6.40;81.80;;;;;;5115537;27;20500;-66
2022/10/12 02:58:31;;;;;;;5.55;1.83;;;6.50;81.70;;;;;;5114883;27;20051;-65
2022/10/12 03:00:58;;;;;;;7.20;2.03;;;6.50;81.70;;;;;;5117827;27;20051;-65
2022/10/12 03:03:25;;;;;;;5.72;1.90;;;6.50;81.70;;;;;;5118371;27;20063;-64
2022/10/12 03:05:53;;;;;;;5.75;1.77;;;6.50;81.60;;;;;;5123428;27;20051;-66
2022/10/12 03:08:20;;;;;;;4.70;1.70;;;6.50;81.50;;;;;;5116156;27;20062;-65
2022/10/12 03:10:47;;;;;;;6.13;1.80;;;6.50;81.60;;;;;;5118929;27;20063;-64
2022/10/12 03:13:14;;;;;;;6.65;2.03;;;6.40;81.60;;;;;;5114124;27;20535;-65
2022/10/12 03:15:43;;;;;;;6.30;2.20;;;6.40;81.70;;;;;;5115757;27;20048;-65
2022/10/12 03:18:10;;;;;;;5.53;1.90;;;6.40;81.80;;;;;;5117972;27;20047;-65
2022/10/12 03:20:37;;;;;;;6.35;1.63;;;6.30;81.90;;;;;;5117895;27;20043;-65
2022/10/12 03:23:05;;;;;;;6.15;2.00;;;6.40;81.80;;;;;;5109732;27;20124;-65
2022/10/12 03:25:36;;;;;;;4.75;1.38;;;6.40;81.80;;;;;;5113343;27;20040;-65
2022/10/12 03:28:04;;;;;;;6.10;1.90;;;6.40;82.00;;;;;;5114358;27;20055;-64
2022/10/12 03:30:31;;;;;;;4.55;2.20;;;6.30;82.00;;;;;;5114202;27;20052;-64
2022/10/12 03:32:58;;;;;;;4.30;1.70;;;6.30;81.90;;;;;;5108044;27;20058;-65
2022/10/12 03:35:25;;;;;;;7.20;2.05;;;6.40;81.60;;;;;;5092539;27;20050;-65
2022/10/12 03:37:52;;;;;;;5.80;2.05;;;6.30;81.50;;;;;;5112291;27;20043;-64
2022/10/12 03:40:20;;;;;;;8.82;1.92;;;6.20;81.80;;;;;;5108005;27;20084;-64
2022/10/12 03:42:47;;;;;;;5.78;1.92;;;6.20;81.90;;;;;;5116454;27;20043;-64
2022/10/12 03:45:14;;;;;;;5.60;1.67;;;6.20;82.10;;;;;;5116650;27;20047;-65
2022/10/12 03:47:40;;;;;;;5.95;1.95;;;6.20;82.00;;;;;;5115574;27;20039;-65
2022/10/12 03:50:08;;;;;;;3.97;1.80;;;6.30;82.10;;;;;;5120469;27;20044;-64
2022/10/12 03:52:35;;;;;;;4.68;1.52;;;6.30;82.10;;;;;;5114465;27;20048;-65
2022/10/12 03:55:02;;;;;;;5.18;2.08;;;6.30;82.30;;;;;;5117255;27;20698;-65
2022/10/12 03:57:35;;;;;;;7.10;1.85;;;6.30;82.30;;;;;;5117992;27;20095;-66
2022/10/12 04:00:02;;;;;;;4.97;1.80;;;6.40;82.20;;;;;;5114564;27;20051;-66
2022/10/12 04:02:38;;;;;;;5.57;1.70;;;6.40;82.20;;;;;;5120600;27;20450;-65
2022/10/12 04:05:05;;;;;;;5.90;1.80;;;6.40;82.40;;;;;;5119453;27;20112;-65
2022/10/12 04:07:37;;;;;;;4.68;1.40;;;6.30;82.50;;;;;;5114422;27;20040;-65
2022/10/12 04:10:05;;;;;;;6.63;1.73;;;6.30;82.30;;;;;;5116413;27;20105;-64
2022/10/12 04:12:32;;;;;;;5.85;1.58;;;6.30;82.20;;;;;;5114697;27;20046;-65
2022/10/12 04:15:00;;;;;;;3.63;1.52;;;6.20;82.20;;;;;;5115541;27;20043;-66
2022/10/12 04:17:27;;;;;;;5.35;1.90;;;6.20;82.30;;;;;;5118795;27;20051;-65
2022/10/12 04:19:54;;;;;;;5.57;1.80;;;6.10;82.20;;;;;;5117893;27;20039;-64
2022/10/12 04:22:22;;;;;;;7.30;1.90;;;6.10;82.20;;;;;;5120427;27;20079;-66
2022/10/12 04:24:50;;;;;;;7.50;1.80;;;6.20;82.10;;;;;;5116426;27;20067;-64
2022/10/12 04:27:17;;;;;;;4.63;1.50;;;6.20;82.00;;;;;;5093201;27;20043;-66
2022/10/12 04:29:44;;;;;;;3.63;1.50;;;6.20;81.80;;;;;;5115606;27;20051;-65
2022/10/12 04:32:13;;;;;;;3.92;1.70;;;6.20;81.90;;;;;;5111852;27;20052;-64
2022/10/12 04:34:39;;;;;;;6.43;1.65;;;6.10;82.10;;;;;;5121166;27;20073;-65
2022/10/12 04:37:06;;;;;;;4.30;1.60;;;6.10;82.00;;;;;;5117157;27;20557;-66
2022/10/12 04:39:34;;;;;;;5.75;1.60;;;6.10;82.00;;;;;;5118810;27;20070;-65
2022/10/12 04:42:01;;;;;;;3.85;1.40;;;6.10;81.90;;;;;;5115994;27;20060;-64
2022/10/12 04:44:28;;;;;;;5.07;1.95;;;6.10;82.00;;;;;;5116712;27;20047;-65
2022/10/12 04:46:55;;;;;;;6.82;2.00;;;6.10;81.80;;;;;;5115963;27;20062;-65
2022/10/12 04:49:23;;;;;;;4.50;1.73;;;6.00;81.90;;;;;;5116923;27;20047;-64
2022/10/12 04:51:50;;;;;;;4.97;1.52;;;6.00;81.90;;;;;;5112264;27;20055;-66
2022/10/12 04:54:17;;;;;;;6.07;1.80;;;6.00;82.00;;;;;;5117427;27;20044;-64
2022/10/12 04:56:43;;;;;;;5.43;1.98;;;6.00;82.10;;;;;;5117633;27;20044;-65
2022/10/12 04:59:10;;;;;;;5.55;1.75;;;6.00;82.20;;;;;;5109954;27;20530;-64
2022/10/12 05:01:37;;;;;;;6.47;2.03;;;6.00;82.40;;;;;;5117619;27;20039;-65
2022/10/12 05:04:04;;;;;;;5.40;1.83;;;6.00;82.30;;;;;;5119106;27;20062;-65
2022/10/12 05:06:33;;;;;;;4.35;1.48;;;6.00;82.30;;;;;;5114522;27;20534;-67
2022/10/12 05:08:59;;;;;;;6.43;1.95;;;6.10;82.30;;;;;;5118346;27;20047;-65
2022/10/12 05:11:26;;;;;;;4.18;1.90;;;6.10;82.40;;;;;;5117092;27;20442;-65
2022/10/12 05:13:53;;;;;;;5.53;1.85;;;6.00;82.30;;;;;;5114677;27;20051;-65
2022/10/12 05:16:20;;;;;;;7.32;2.13;;;6.00;82.60;;;;;;5110486;27;20112;-65
2022/10/12 05:18:47;;;;;;;4.88;1.70;;;6.00;82.70;;;;;;5107723;27;20458;-66
2022/10/12 05:21:13;;;;;;;6.85;2.30;;;6.00;82.70;;;;;;5115829;27;20515;-64
2022/10/12 05:23:42;;;;;;;5.70;1.80;;;6.00;82.70;;;;;;5119306;27;20043;-64
2022/10/12 05:26:09;;;;;;;6.43;2.10;;;6.00;82.70;;;;;;5115601;27;20051;-65
2022/10/12 05:28:35;;;;;;;9.20;2.60;;;6.00;82.80;;;;;;5118270;27;20044;-65
2022/10/12 05:31:03;;;;;;;4.45;1.77;;;6.00;82.70;;;;;;5117200;27;20075;-65
2022/10/12 05:33:30;;;;;;;3.88;1.55;;;6.00;82.60;;;;;;5116134;27;20048;-65
2022/10/12 05:35:56;;;;;;;5.35;2.00;;;6.00;82.70;;;;;;5114696;27;20073;-65
2022/10/12 05:38:23;;;;;;;5.15;2.17;;;6.00;82.60;;;;;;5118420;27;20039;-65
2022/10/12 05:40:52;;;;;;;7.05;1.83;;;6.00;82.60;;;;;;5119244;27;20074;-65
2022/10/12 05:43:18;;;;;;;4.43;1.80;;;6.00;82.70;;;;;;5115758;27;20047;-65
2022/10/12 05:45:45;;;;;;;4.88;1.98;;;5.90;82.80;;;;;;5114585;27;20043;-65
2022/10/12 05:48:13;;;;;;;4.70;1.95;;;6.00;82.80;;;;;;5119870;27;20055;-66
2022/10/12 05:50:39;;;;;;;6.72;1.70;;;6.00;82.90;;;;;;5121087;27;20496;-64
2022/10/12 05:53:06;;;;;;;7.15;2.47;;;5.90;83.00;;;;;;5120740;27;20084;-64
2022/10/12 05:55:33;;;;;;;8.85;2.30;;;5.90;82.90;;;;;;5112669;27;20055;-66
2022/10/12 05:58:01;;;;;;;7.05;2.25;;;5.90;82.80;;;;;;5116434;27;20559;-66
2022/10/12 06:00:28;;;;;;;5.20;2.20;;;5.90;82.90;;;;;;5119487;27;20043;-65
2022/10/12 06:02:56;;;;;;;5.05;2.20;;;5.90;82.80;;;;;;5118430;27;20043;-64
2022/10/12 06:05:23;;;;;;;6.75;2.10;;;5.90;82.80;;;;;;5108623;27;20500;-66
2022/10/12 06:07:53;;;;;;;5.82;2.20;;;5.90;82.90;;;;;;5116998;27;20096;-65
2022/10/12 06:10:20;;;;;;;7.05;1.90;;;5.90;82.90;;;;;;5116871;27;21429;-65
2022/10/12 06:12:46;;;;;;;5.13;2.17;;;5.90;83.00;;;;;;5115705;27;20497;-64
2022/10/12 06:15:15;;;;;;;5.90;2.20;;;5.90;82.90;;;;;;5115428;27;20138;-65
2022/10/12 06:17:43;;;;;;;4.72;2.50;;;6.00;82.90;;;;;;5116066;27;20078;-64
2022/10/12 06:20:11;;;;;;;6.63;2.22;;;6.00;82.80;;;;;;5110156;27;20047;-64
2022/10/12 06:22:38;;;;;;;5.20;2.25;;;6.00;82.80;;;;;;5108092;27;20080;-65
2022/10/12 06:25:06;;;;;;;4.65;1.70;;;6.00;82.80;;;;;;5112362;27;20076;-65
2022/10/12 06:27:33;;;;;;;5.28;2.30;;;6.00;82.80;;;;;;5110721;27;20052;-64
2022/10/12 06:30:02;;;;;;;6.20;2.40;;;6.00;82.80;;;;;;5110074;27;20048;-65
2022/10/12 06:32:30;;;;;;;6.00;1.95;;;6.00;82.90;;;;;;5113238;27;20126;-68
2022/10/12 06:34:57;;;;;;;7.75;2.42;;;6.00;82.90;;;;;;5115631;27;20068;-64
2022/10/12 06:37:24;;;;;;;6.50;2.20;;;6.00;83.10;;;;;;5115228;27;20044;-65
2022/10/12 06:39:51;;;;;;;5.28;2.30;;;6.10;83.10;;;;;;5117055;27;20040;-65
2022/10/12 06:42:18;;;;;;;6.10;2.55;;;6.10;83.10;;;;;;5114774;27;20066;-64
2022/10/12 06:44:49;;;;;;;5.78;2.10;;;6.00;83.20;;;;;;5112415;27;20070;-66
2022/10/12 06:47:16;;;;;;;7.10;2.15;;;6.10;83.10;;;;;;5116209;27;20062;-64
2022/10/12 06:49:44;;;;;;;3.90;1.85;;;6.10;83.10;;;;;;5114036;27;20156;-65
2022/10/12 06:52:11;;;;;;;8.60;2.13;;;6.10;83.20;;;;;;5115880;27;20519;-65
2022/10/12 06:54:40;;;;;;;6.57;2.13;;;6.20;83.10;;;;;;5101786;28;20104;-66
2022/10/12 06:57:07;;;;;;;4.72;2.15;;;6.20;83.20;;;;;;5114748;27;20506;-65
2022/10/12 06:59:34;;;;;;;8.07;2.15;;;6.20;83.30;;;;;;5107960;27;20062;-65
2022/10/12 07:02:01;;;;;;;8.10;2.22;;;6.30;83.30;;;;;;5111761;27;20105;-65
2022/10/12 07:04:28;;;;;;;4.75;1.90;;;6.30;83.40;;;;;;5112261;27;20047;-64
2022/10/12 07:06:56;;;;;;;5.03;2.03;;;6.40;83.20;;;;;;5107685;27;20070;-64
2022/10/12 07:09:23;;;;;;;7.03;2.28;;;6.40;83.40;;;;;;5108191;27;20059;-65
2022/10/12 07:11:50;;;;;;;4.57;2.40;;;6.40;83.70;;;;;;5115325;27;20051;-65
2022/10/12 07:14:17;;;;;;;4.45;2.05;;;6.50;83.50;;;;;;5115330;27;20047;-66
2022/10/12 07:16:44;;;;;;;6.85;2.28;;;6.50;83.50;;;;;;5111570;27;20047;-65
2022/10/12 07:19:11;;;;;;;4.10;2.30;;;6.50;83.60;;;;;;5114559;27;20496;-65
2022/10/12 07:21:40;;;;;;;6.07;2.10;;;6.50;83.60;;;;;;5116252;27;20051;-65
2022/10/12 07:24:11;;;;;;;5.15;2.10;;;6.60;83.80;;;;;;5108183;27;20047;-65
2022/10/12 07:26:41;;;;;;;4.60;2.08;;;6.60;83.90;;;;;;5088338;28;20048;-66
2022/10/12 07:29:09;;;;;;;6.07;2.10;;;6.70;83.70;;;;;;5092251;28;20055;-64
2022/10/12 07:31:36;;;;;;;7.82;2.40;;;6.70;83.60;;;;;;5090072;28;20113;-64
2022/10/12 07:34:03;;;;;;;3.05;1.77;;;6.80;83.40;;;;;;5092879;28;20044;-64
2022/10/12 07:36:30;;;;;;;6.70;2.10;;;6.80;83.20;;;;;;5095831;28;20046;-64
2022/10/12 07:38:57;;;;;;;5.35;2.25;;;6.90;83.60;;;;;;5094265;28;20109;-63
2022/10/12 07:41:26;;;;;;;6.07;2.63;;;6.80;83.50;;;;;;5096730;28;20048;-66
2022/10/12 07:43:55;;;;;;;7.03;2.63;;;6.90;84.00;;;;;;5092470;28;20073;-65
2022/10/12 07:46:22;;;;;;;5.28;2.20;;;7.00;84.10;;;;;;5089379;28;20058;-64
2022/10/12 07:48:48;;;;;;;5.43;2.10;;;7.00;84.00;;;;;;5092517;28;20044;-66
2022/10/12 07:51:16;;;;;;;5.18;2.08;;;7.10;84.20;;;;;;5096041;28;20048;-64
2022/10/12 07:53:43;;;;;;;4.68;2.30;;;7.10;83.30;;;;;;5095335;28;20422;-64
2022/10/12 07:56:14;;;;;;;6.05;2.30;;;7.10;84.50;;;;;;5077285;28;20060;-65
2022/10/12 07:58:43;;;;;;;6.32;1.95;;;7.20;84.50;;;;;;5093441;28;20052;-65
2022/10/12 08:01:11;;;;;;;5.70;2.38;;;7.20;84.70;;;;;;5095004;28;20055;-64
2022/10/12 08:03:38;;;;;;;4.82;1.98;;;7.20;84.20;;;;;;5094378;28;20060;-65
2022/10/12 08:06:09;;;;;;;7.20;1.98;;;7.20;84.80;;;;;;5090225;28;20059;-64
2022/10/12 08:08:36;;;;;;;4.63;2.20;;;7.30;84.70;;;;;;5094505;28;20043;-65
2022/10/12 08:11:04;;;;;;;3.30;1.75;;;7.40;85.00;;;;;;5094062;28;20130;-65
2022/10/12 08:13:31;;;;;;;4.72;2.05;;;7.50;85.80;;;;;;5092495;28;20047;-66
2022/10/12 08:16:00;;;;;;;3.88;2.05;;;7.60;85.70;;;;;;5082829;28;20522;-65
2022/10/12 08:18:29;;;;;;;5.88;2.00;;;7.70;86.10;;;;;;5093280;28;20130;-65
2022/10/12 08:20:56;;;;;;;5.22;2.03;;;7.70;86.00;;;;;;5093666;28;20040;-65
2022/10/12 08:23:23;;;;;;;8.65;1.88;;;7.90;86.00;;;;;;5092029;28;20052;-65
2022/10/12 08:25:53;;;;;;;6.07;2.20;;;8.00;86.00;;;;;;5093970;28;20508;-64
2022/10/12 08:28:21;;;;;;;4.53;1.85;;;8.10;86.20;;;;;;5097347;27;20410;-66
2022/10/12 08:30:54;;;;;;;6.72;2.88;;;8.20;85.80;;;;;;5086858;28;20055;-74
2022/10/12 08:33:22;;;;;;;5.85;2.40;;;8.40;85.90;;;;;;5100858;28;20098;-65
2022/10/12 08:35:49;;;;;;;5.45;2.50;;;8.40;86.10;;;;;;5097541;28;20051;-65
2022/10/12 08:38:16;;;;;;;8.77;3.30;;;8.50;86.20;;;;;;5096927;28;20055;-64
2022/10/12 08:40:49;;;;;;;8.48;2.60;;;8.60;86.20;;;;;;5094688;28;20047;-66
2022/10/12 08:43:27;;;;;;;7.30;2.28;;;8.80;86.20;;;;;;5092454;28;20036;-66
2022/10/12 08:45:56;;;;;;;6.03;2.60;;;8.90;86.20;;;;;;5095525;28;20588;-66
2022/10/12 08:48:28;;;;;;;8.35;2.53;;;9.00;86.00;;;;;;5098736;28;20765;-65
2022/10/12 08:50:58;;;;;;;5.20;2.60;;;9.20;86.20;;;;;;5092608;28;20043;-66
2022/10/12 08:53:30;;;;;;;7.78;2.00;;;9.30;86.20;;;;;;5092414;28;20052;-66
2022/10/12 08:55:57;;;;;;;8.00;2.40;;;9.40;86.20;;;;;;5097605;28;20032;-65
2022/10/12 08:58:29;;;;;;;8.70;2.80;;;9.60;86.10;;;;;;5099721;28;20054;-66
2022/10/12 09:01:08;;;;;;;8.90;2.88;;;9.70;85.80;;;;;;5095950;28;20039;-65
2022/10/12 09:03:47;;;;;;;7.45;2.72;;;9.90;85.40;;;;;;5093818;28;20040;-66
2022/10/12 09:06:18;;;;;;;8.57;2.72;;;10.10;85.10;;;;;;5096011;27;20056;-65
2022/10/12 09:08:57;;;;;;;6.63;2.78;;;10.20;85.50;;;;;;5096814;27;20036;-66
2022/10/12 09:11:35;;;;;;;9.18;2.63;;;10.30;84.80;;;;;;5095548;28;20394;-66
2022/10/12 09:14:07;;;;;;;8.38;3.08;;;10.60;84.50;;;;;;5096842;28;20040;-65
2022/10/12 09:16:39;;;;;;;5.35;2.40;;;10.80;84.00;;;;;;5095438;28;20058;-65
2022/10/12 09:19:15;;;;;;;7.47;2.97;;;11.00;83.60;;;;;;5099311;28;20044;-65
2022/10/12 09:21:44;;;;;;;6.63;2.75;;;11.10;83.60;;;;;;5092368;28;20048;-66
2022/10/12 09:24:16;;;;;;;5.07;2.33;;;11.20;83.20;;;;;;5093803;28;20047;-65
2022/10/12 09:26:46;;;;;;;6.80;2.72;;;11.40;83.00;;;;;;5090778;28;20047;-65
2022/10/12 09:29:25;;;;;;;7.35;2.60;;;11.40;83.30;;;;;;5094744;28;20066;-65
2022/10/12 09:32:15;;;;;;;6.20;2.88;;;11.50;83.30;;;;;;5093596;28;20054;-66
2022/10/12 09:34:45;;;;;;;6.22;2.45;;;11.40;83.20;;;;;;5084566;28;20093;-66
2022/10/12 09:37:17;;;;;;;6.63;2.35;;;11.60;83.40;;;;;;5085496;28;20052;-66
2022/10/12 09:39:45;;;;;;;6.70;2.75;;;11.60;83.20;;;;;;5092024;28;20060;-66
2022/10/12 09:42:15;;;;;;;12.90;2.85;;;11.60;83.30;;;;;;5089918;28;20044;-64
2022/10/12 09:44:46;;;;;;;7.70;2.75;;;11.70;83.40;;;;;;5094227;28;20069;-64
2022/10/12 09:47:28;;;;;;;7.95;2.80;;;11.70;83.00;;;;;;5088583;28;20052;-64
2022/10/12 09:49:58;;;;;;;9.68;3.50;;;11.70;82.90;;;;;;5094784;28;20093;-65
2022/10/12 09:52:29;;;;;;;6.72;2.50;;;11.80;82.90;;;;;;5100648;28;20048;-66
2022/10/12 09:54:59;;;;;;;9.40;3.75;;;11.90;82.40;;;;;;5096976;28;20035;-67
2022/10/12 09:57:30;;;;;;;9.30;3.47;;;12.00;82.70;;;;;;5095725;27;20109;-66
2022/10/12 09:59:57;;;;;;;9.35;3.90;;;12.00;82.70;;;;;;5099668;27;20036;-66
2022/10/12 10:02:26;;;;;;;7.60;3.33;;;12.10;82.50;;;;;;5079787;28;20544;-66
2022/10/12 10:04:54;;;;;;;9.75;3.70;;;12.10;82.40;;;;;;5098215;28;20051;-66
2022/10/12 10:07:27;;;;;;;9.95;4.30;;;12.20;82.40;;;;;;5099759;28;20384;-66
2022/10/12 10:10:18;;;;;;;11.35;3.67;;;12.20;82.20;;;;;;5098247;28;20075;-66
2022/10/12 10:12:51;;;;;;;7.55;3.47;;;12.30;82.20;;;;;;5086762;28;20485;-66
2022/10/12 10:15:24;;;;;;;9.13;3.80;;;12.40;82.00;;;;;;5093193;28;20055;-64
2022/10/12 10:17:53;;;;;;;7.65;3.28;;;12.50;82.30;;;;;;5098773;28;20044;-66
2022/10/12 10:20:33;;;;;;;6.65;3.38;;;12.60;82.00;;;;;;5091817;28;20059;-66
2022/10/12 10:23:03;;;;;;;12.80;3.78;;;12.70;81.80;;;;;;5098704;28;20130;-66
2022/10/12 10:25:31;;;;;;;9.73;4.15;;;12.80;81.70;;;;;;5095048;28;20040;-66
2022/10/12 10:28:21;;;;;;;7.63;3.85;;;13.00;81.40;;;;;;5093809;28;20511;-65
2022/10/12 10:30:57;;;;;;;7.75;3.15;;;13.00;81.30;;;;;;5093474;28;20548;-65
2022/10/12 10:33:25;;;;;;;8.63;3.20;;;13.10;81.70;;;;;;5092537;27;20516;-66
2022/10/12 10:35:59;;;;;;;11.55;3.83;;;13.20;81.10;;;;;;5091345;27;20035;-66
2022/10/12 10:38:27;;;;;;;8.48;4.10;;;13.30;81.40;;;;;;5096135;28;20051;-67
2022/10/12 10:40:56;;;;;;;11.52;4.78;;;13.30;80.80;;;;;;5091146;28;20051;-66
2022/10/12 10:43:27;;;;;;;10.48;3.72;;;13.30;81.10;;;;;;5091082;28;20044;-66
2022/10/12 10:45:58;;;;;;;7.50;3.95;;;13.30;81.20;;;;;;5089233;28;20051;-66
2022/10/12 10:48:29;;;;;;;7.40;4.30;;;13.30;81.10;;;;;;5082654;28;20127;-67
2022/10/12 10:51:00;;;;;;;10.32;4.88;;;13.40;81.30;;;;;;5091415;28;20052;-66
2022/10/12 10:53:43;;;;;;;12.40;5.55;;;13.40;81.40;;;;;;5093784;28;20516;-65
2022/10/12 10:56:14;;;;;;;8.95;5.18;;;13.50;81.60;;;;;;5094699;28;20074;-66
2022/10/12 10:58:45;;;;;;;12.93;5.50;;;13.60;81.30;;;;;;5088758;28;21904;-65
2022/10/12 11:01:18;;;;;;;10.38;5.45;;;13.70;81.10;;;;;;5085028;28;20382;-66
2022/10/12 11:03:52;;;;;;;11.77;4.75;;;13.60;81.10;;;;;;5095817;28;20040;-66
2022/10/12 11:06:29;;;;;;;10.05;4.88;;;13.70;80.80;;;;;;5089816;28;20054;-65
2022/10/12 11:09:04;;;;;;;9.05;5.05;;;13.70;80.80;;;;;;5094855;28;20048;-64
2022/10/12 11:11:34;;;;;;;10.77;4.57;;;13.80;80.80;;;;;;5094383;28;20481;-65
2022/10/12 11:14:04;;;;;;;;;;;13.80;80.70;;;;;;5098495;28;20048;-66
2022/10/12 11:16:37;;;;;;;9.73;4.53;;;13.80;80.80;;;;;;5101821;28;19942;-65
2022/10/12 11:19:18;;;;;;;8.57;4.63;;;13.90;80.80;;;;;;5095578;28;20138;-65
2022/10/12 11:21:49;;;;;;;10.25;5.13;;;13.90;80.80;;;;;;5091292;28;20043;-66
2022/10/12 11:24:21;;;;;;;8.52;4.78;;;13.90;80.60;;;;;;5093394;28;20039;-66
2022/10/12 11:26:53;;;;;;;9.73;5.05;;;14.00;80.60;;;;;;5085035;28;20042;-66
2022/10/12 11:29:21;;;;;;;8.60;4.70;;;13.90;80.40;;;;;;5091349;28;20142;-65
2022/10/12 11:31:56;;;;;;;9.77;4.90;;;14.00;80.90;;;;;;5085962;28;20382;-65
2022/10/12 11:34:28;;;;;;;9.55;5.45;;;14.10;80.90;;;;;;5088419;28;20051;-66
2022/10/12 11:36:56;;;;;;;8.55;4.97;;;14.10;81.00;;;;;;5093855;28;20048;-64
2022/10/12 11:39:34;;;;;;;9.65;5.13;;;14.10;80.90;;;;;;5094458;28;20402;-64
2022/10/12 11:42:05;;;;;;;13.95;5.68;;;14.10;80.30;;;;;;5089348;28;20453;-66
2022/10/12 11:44:41;;;;;;;8.82;5.35;;;14.10;80.50;;;;;;5094528;28;20405;-66
2022/10/12 11:47:14;;;;;;;12.45;5.90;;;14.10;80.30;;;;;;5089216;28;20051;-65
2022/10/12 11:49:51;;;;;;;11.30;6.68;;;14.10;80.90;;;;;;5091222;28;20082;-65
2022/10/12 11:52:20;;;;;;;13.63;6.97;;;14.10;80.80;;;;;;5095423;28;20044;-65
2022/10/12 11:54:55;;;;;;;13.90;6.85;;;14.10;81.00;;;;;;5088888;28;20051;-65
2022/10/12 11:57:26;;;;;;;11.35;6.30;;;14.10;80.30;;;;;;5096721;28;20047;-66
2022/10/12 11:59:58;;;;;;;11.15;6.72;;;14.10;80.60;;;;;;5094979;28;20047;-66
2022/10/12 12:02:29;;;;;;;11.40;5.82;;;14.20;80.30;;;;;;5093948;28;20048;-66
2022/10/12 12:04:57;;;;;;;12.02;6.43;;;14.30;80.30;;;;;;5094306;28;20052;-65
2022/10/12 12:07:46;;;;;;;11.13;5.35;;;14.30;80.40;;;;;;5098977;28;20068;-64
2022/10/12 12:10:50;;;;;;;12.18;5.50;;;14.40;80.90;;;;;;5101253;27;20512;-64
2022/10/12 12:13:21;;;;;;;14.13;5.95;;;14.40;80.40;;;;;;5054172;28;20048;-64
2022/10/12 12:16:32;;;;;;;10.77;5.78;;;14.60;80.30;;;;;;5096999;28;20047;-66
2022/10/12 12:19:33;;;;;;;11.15;5.82;;;14.60;79.30;;;;;;5083532;28;20051;-66
2022/10/12 12:22:25;;;;;;;9.43;5.28;;;14.60;78.50;;;;;;5081772;28;20051;-67
2022/10/12 12:25:18;;;;;;;12.38;6.22;;;14.60;79.10;;;;;;5091308;28;20039;-66
2022/10/12 12:27:50;;;;;;;9.27;5.15;;;14.70;78.90;;;;;;5082784;28;20049;-65
2022/10/12 12:30:43;;;;;;;10.52;5.53;;;14.70;79.20;;;;;;5093753;28;20044;-66
2022/10/12 12:33:33;;;;;;;10.43;5.95;;;14.70;79.20;;;;;;5091111;28;20055;-65
2022/10/12 12:36:04;;;;;;;;;;;14.70;79.20;;;;;;5090797;27;20068;-67
2022/10/12 12:38:33;;;;;;;10.43;5.25;;;14.80;79.50;;;;;;5095342;28;19923;-65
2022/10/12 12:41:10;;;;;;;11.05;5.32;;;14.80;79.30;;;;;;5094190;28;20078;-67
2022/10/12 12:44:03;;;;;;;9.98;5.15;;;14.80;79.10;;;;;;5086957;28;20131;-65
2022/10/12 12:47:07;;;;;;;10.27;5.20;;;14.90;78.90;;;;;;5092457;28;20044;-65
2022/10/12 12:49:46;;;;;;;11.73;5.57;;;15.00;78.90;;;;;;5100816;28;20108;-66
2022/10/12 12:52:20;;;;;;;9.80;4.93;;;15.10;78.70;;;;;;5091101;28;20123;-65
2022/10/12 12:55:10;;;;;;;11.48;6.13;;;15.20;78.40;;;;;;5090715;28;20469;-66
2022/10/12 12:57:49;;;;;;;;;;;15.20;78.50;;;;;;5087135;28;20044;-66
2022/10/12 13:00:21;;;;;;;9.27;4.97;;;15.20;78.50;;;;;;5093845;28;19920;-66
2022/10/12 13:03:25;;;;;;;9.00;5.18;;;15.20;78.40;;;;;;5086818;28;20071;-66
2022/10/12 13:06:30;;;;;;;11.48;5.40;;;15.30;78.30;;;;;;5091715;27;20048;-65
2022/10/12 13:09:23;;;;;;;14.00;5.65;;;15.30;78.20;;;;;;5092045;28;20055;-66
2022/10/12 13:12:11;;;;;;;10.13;4.65;;;15.40;78.40;;;;;;5088955;28;20130;-66
2022/10/12 13:14:52;;;;;;;12.35;5.80;;;15.40;78.60;;;;;;5084635;27;20059;-66